Time;durP1;ratioP1;P1;durP2;ratioP2;P2;SDS_P1;SDS_P2;PMS_P1;PMS_P2;Temp;Humidity;BMP_temperature;BMP_pressure;BME280_temperature;BME280_humidity;BME280_pressure;Samples;Min_cycle;Max_cycle;Signal;HPM_P1;HPM_P2
2022/11/26 00:01:48;;;;;;;17.38;12.07;;;7.70;99.90;;;7.71;100.00;101683.63;4897808;29;20282;-75
2022/11/26 00:04:17;;;;;;;25.23;13.40;;;7.60;99.90;;;7.81;100.00;101687.00;4900548;29;20206;-74
2022/11/26 00:06:52;;;;;;;20.73;12.98;;;7.70;99.90;;;7.73;100.00;101687.00;4913969;29;20212;-75
2022/11/26 00:09:25;;;;;;;19.88;12.48;;;7.70;99.90;;;7.75;100.00;101683.13;4897892;29;20552;-74
2022/11/26 00:11:55;;;;;;;22.13;13.02;;;7.70;99.90;;;7.81;100.00;101687.84;4897209;29;20230;-75
2022/11/26 00:14:30;;;;;;;22.80;13.55;;;7.70;99.90;;;7.75;100.00;101693.06;4897366;29;20267;-74
2022/11/26 00:16:59;;;;;;;23.35;12.80;;;7.70;99.90;;;7.75;100.00;101684.97;4913004;29;20226;-74
2022/11/26 00:19:30;;;;;;;22.60;13.57;;;7.70;99.90;;;7.82;100.00;101686.00;4905699;29;20198;-74
2022/11/26 00:22:00;;;;;;;23.73;13.50;;;7.80;99.90;;;7.94;100.00;101692.75;4896970;29;20739;-74
2022/11/26 00:24:33;;;;;;;25.17;13.40;;;7.90;99.90;;;7.91;100.00;101698.50;4898297;29;20641;-73
2022/11/26 00:27:03;;;;;;;31.77;14.27;;;7.80;99.90;;;7.87;100.00;101702.53;4887810;29;20194;-74
2022/11/26 00:29:34;;;;;;;29.15;16.55;;;7.80;99.90;;;7.84;100.00;101702.88;4912289;29;20621;-74
2022/11/26 00:32:15;;;;;;;23.83;13.95;;;7.80;99.90;;;7.76;100.00;101705.53;4896834;29;20325;-73
2022/11/26 00:34:48;;;;;;;28.13;13.63;;;7.80;99.90;;;7.71;100.00;101702.47;4897880;29;20604;-73
2022/11/26 00:37:27;;;;;;;33.63;14.15;;;7.70;99.90;;;7.78;100.00;101703.53;4897770;29;20281;-75
2022/11/26 00:40:02;;;;;;;26.95;14.65;;;7.80;99.90;;;7.74;100.00;101703.00;4912481;29;20197;-75
2022/11/26 00:42:33;;;;;;;27.85;15.63;;;7.70;99.90;;;7.72;100.00;101714.94;4897714;29;20607;-75
2022/11/26 00:45:16;;;;;;;23.08;14.73;;;7.70;99.90;;;7.71;100.00;101715.94;4896996;29;20209;-75
2022/11/26 00:47:49;;;;;;;32.15;16.23;;;7.70;99.90;;;7.74;100.00;101724.56;4896295;29;20262;-76
2022/11/26 00:50:25;;;;;;;22.08;13.77;;;7.70;99.90;;;7.73;100.00;101714.78;4912399;29;20209;-74
2022/11/26 00:53:01;;;;;;;33.70;15.75;;;7.70;99.90;;;7.78;100.00;101717.00;4912675;29;20249;-74
2022/11/26 00:55:43;;;;;;;32.38;16.02;;;7.70;99.90;;;7.85;100.00;101718.00;4912775;29;20600;-72
2022/11/26 00:58:27;;;;;;;23.55;15.45;;;7.80;99.90;;;7.80;100.00;101715.81;4896979;29;20690;-75
2022/11/26 01:01:02;;;;;;;26.05;14.23;;;7.80;99.90;;;7.58;100.00;101715.56;4897639;29;20198;-74
2022/11/26 01:03:33;;;;;;;26.05;15.55;;;7.60;99.90;;;7.79;100.00;101722.19;4897111;29;20301;-73
2022/11/26 01:06:02;;;;;;;28.05;15.98;;;7.70;99.90;;;7.95;100.00;101732.19;4897136;29;20198;-74
2022/11/26 01:08:36;;;;;;;29.75;13.93;;;7.90;99.90;;;7.93;100.00;101734.22;4912947;29;20224;-75
2022/11/26 01:11:44;;;;;;;29.80;14.63;;;7.90;99.90;;;7.87;100.00;101740.25;4899058;29;20592;-74
2022/11/26 01:14:21;;;;;;;33.22;17.02;;;7.80;99.90;;;7.85;100.00;101736.88;4902466;29;20609;-74
2022/11/26 01:17:01;;;;;;;31.08;14.35;;;7.80;99.90;;;7.92;100.00;101751.38;4901432;29;20185;-74
2022/11/26 01:19:36;;;;;;;22.77;13.80;;;7.90;99.90;;;7.82;100.00;101747.97;4916790;29;20289;-75
2022/11/26 01:22:10;;;;;;;24.10;14.30;;;7.80;99.90;;;7.83;100.00;101749.69;4916535;29;20226;-75
2022/11/26 01:24:41;;;;;;;26.42;14.88;;;7.80;99.90;;;7.85;100.00;101758.44;4916073;29;20292;-75
2022/11/26 01:27:22;;;;;;;31.05;14.77;;;7.80;99.90;;;7.82;100.00;101761.47;4910093;29;20726;-74
2022/11/26 01:29:54;;;;;;;27.08;14.32;;;7.80;99.90;;;7.78;100.00;101763.66;4902059;29;20193;-74
2022/11/26 01:32:26;;;;;;;33.95;14.25;;;7.80;99.90;;;7.82;100.00;101764.16;4912795;29;20229;-75
2022/11/26 01:35:01;;;;;;;24.58;15.60;;;7.80;99.90;;;7.75;100.00;101757.72;4910923;29;20225;-74
2022/11/26 01:37:35;;;;;;;29.33;15.07;;;7.70;99.90;;;7.78;100.00;101773.56;4890463;29;20197;-74
2022/11/26 01:40:40;;;;;;;35.15;15.10;;;7.70;99.90;;;7.84;100.00;101767.53;4915416;29;20202;-73
2022/11/26 01:43:25;;;;;;;24.42;14.25;;;7.80;99.90;;;7.83;100.00;101771.25;4887180;29;20230;-72
2022/11/26 01:45:57;;;;;;;29.08;17.20;;;7.80;99.90;;;7.82;100.00;101764.16;4915599;29;20202;-74
2022/11/26 01:48:36;;;;;;;30.70;14.93;;;7.80;99.90;;;7.89;100.00;101765.16;4915561;29;20249;-74
2022/11/26 01:51:12;;;;;;;28.83;12.15;;;7.80;99.90;;;7.85;100.00;101763.81;4901075;29;20628;-72
2022/11/26 01:53:51;;;;;;;33.00;16.05;;;7.80;99.90;;;7.94;100.00;101767.41;4899743;29;20233;-74
2022/11/26 01:56:33;;;;;;;40.08;15.50;;;7.90;99.90;;;7.86;100.00;101776.28;4915246;29;20224;-73
2022/11/26 01:59:18;;;;;;;28.05;15.85;;;7.80;99.90;;;7.87;100.00;101775.28;4899725;29;20202;-74
2022/11/26 02:01:52;;;;;;;32.83;14.88;;;7.80;99.90;;;7.87;100.00;101772.59;4899305;29;20517;-74
2022/11/26 02:04:32;;;;;;;29.55;14.13;;;7.80;99.90;;;7.89;100.00;101778.66;4902434;29;20217;-74
2022/11/26 02:07:05;;;;;;;35.13;14.82;;;7.80;99.90;;;7.97;100.00;101778.69;4899777;29;20747;-73
2022/11/26 02:09:37;;;;;;;35.38;15.25;;;7.90;99.90;;;7.89;100.00;101784.03;4915237;29;20682;-75
2022/11/26 02:12:12;;;;;;;40.42;16.52;;;7.90;99.90;;;7.84;100.00;101783.72;4915772;29;20656;-75
2022/11/26 02:15:04;;;;;;;41.85;17.55;;;7.80;99.90;;;7.79;100.00;101786.88;4900844;29;20171;-74
2022/11/26 02:17:48;;;;;;;34.08;14.32;;;7.80;99.90;;;7.79;100.00;101796.81;4899437;29;20198;-74
2022/11/26 02:20:51;;;;;;;34.75;17.63;;;7.80;99.90;;;7.86;100.00;101790.63;4914923;29;20233;-74
2022/11/26 02:24:13;;;;;;;30.52;12.65;;;7.80;99.90;;;8.02;100.00;101800.63;4913700;29;20240;-74
2022/11/26 02:27:24;;;;;;;43.72;16.02;;;7.90;99.90;;;7.97;100.00;101802.94;4836916;29;20299;-74
2022/11/26 02:31:23;;;;;;;36.33;14.95;;;7.90;99.90;;;7.90;100.00;101801.91;4901909;29;20220;-74
2022/11/26 02:34:15;;;;;;;28.77;14.63;;;7.90;99.90;;;7.84;100.00;101821.44;4880125;29;20218;-74
2022/11/26 02:36:52;;;;;;;39.05;15.80;;;7.80;99.90;;;7.90;100.00;101820.78;4900056;29;20301;-75
2022/11/26 02:39:32;;;;;;;39.67;13.90;;;7.80;99.90;;;7.88;100.00;101828.19;4899109;29;20522;-74
2022/11/26 02:42:25;;;;;;;50.53;15.75;;;7.80;99.90;;;7.80;100.00;101814.66;4934247;23;20202;-82
2022/11/26 02:44:57;;;;;;;34.70;15.00;;;7.80;99.90;;;7.88;100.00;101813.88;4957857;29;20213;-78
2022/11/26 02:47:29;;;;;;;36.42;16.48;;;7.80;99.90;;;7.84;100.00;101824.94;4961407;28;20240;-78
2022/11/26 02:50:07;;;;;;;38.95;15.95;;;7.80;99.90;;;7.87;100.00;101818.41;4942141;29;20197;-78
2022/11/26 02:52:39;;;;;;;40.25;17.58;;;7.80;99.90;;;7.95;100.00;101825.66;4950191;29;20249;-78
2022/11/26 02:55:13;;;;;;;56.58;16.75;;;7.90;99.90;;;7.90;100.00;101825.31;4942029;29;20197;-78
2022/11/26 02:57:48;;;;;;;32.70;16.40;;;7.90;99.90;;;7.88;100.00;101822.81;4941700;29;20184;-78
2022/11/26 03:00:19;;;;;;;35.90;14.90;;;7.90;99.90;;;7.91;100.00;101822.47;4939878;29;20189;-83
2022/11/26 03:02:54;;;;;;;36.70;18.42;;;7.80;99.90;;;7.83;100.00;101820.59;4929244;29;20209;-82
2022/11/26 03:05:25;;;;;;;39.30;16.30;;;7.90;99.90;;;7.91;100.00;101822.47;4926706;29;20203;-81
2022/11/26 03:07:55;;;;;;;33.50;17.30;;;7.90;99.90;;;7.83;100.00;101819.75;4926406;29;20252;-81
2022/11/26 03:10:30;;;;;;;31.15;14.93;;;7.90;99.90;;;7.83;100.00;101820.59;4925914;29;20284;-81
2022/11/26 03:12:59;;;;;;;39.65;15.95;;;7.80;99.90;;;7.84;100.00;101822.25;4926099;29;20219;-83
2022/11/26 03:15:28;;;;;;;38.08;17.33;;;7.80;99.90;;;7.86;100.00;101822.09;4926381;29;20190;-82
2022/11/26 03:17:57;;;;;;;31.85;15.70;;;7.80;99.90;;;7.85;100.00;101828.50;4925483;29;20234;-83
2022/11/26 03:20:27;;;;;;;32.80;16.02;;;7.80;99.90;;;7.87;100.00;101831.88;4922657;29;20214;-83
2022/11/26 03:22:55;;;;;;;38.92;16.02;;;7.80;99.90;;;7.88;100.00;101838.97;4926518;29;20193;-83
2022/11/26 03:25:24;;;;;;;31.65;17.05;;;7.80;99.90;;;7.87;100.00;101837.28;4924778;29;20204;-82
2022/11/26 03:27:55;;;;;;;30.20;16.67;;;7.90;99.90;;;7.91;100.00;101833.25;4926366;29;20229;-82
2022/11/26 03:30:24;;;;;;;45.95;18.88;;;7.90;99.90;;;7.86;100.00;101832.88;4925045;29;20301;-81
2022/11/26 03:32:53;;;;;;;43.08;16.50;;;7.80;99.90;;;7.90;100.00;101855.81;4926322;29;20205;-82
2022/11/26 03:35:22;;;;;;;45.95;19.63;;;7.90;99.90;;;7.88;100.00;101843.50;4930852;29;20225;-79
2022/11/26 03:37:53;;;;;;;41.10;17.00;;;7.90;99.90;;;8.01;100.00;101850.13;4931514;29;20201;-80
2022/11/26 03:40:22;;;;;;;42.03;17.52;;;7.90;99.90;;;8.06;100.00;101847.78;4924394;29;20197;-80
2022/11/26 03:42:50;;;;;;;47.03;19.73;;;7.90;99.90;;;8.04;100.00;101852.50;4923947;29;20208;-80
2022/11/26 03:45:19;;;;;;;40.28;19.38;;;8.00;99.90;;;8.05;100.00;101862.28;4933355;29;20212;-82
2022/11/26 03:47:48;;;;;;;50.58;19.60;;;8.00;99.90;;;7.98;100.00;101858.56;4932175;29;20222;-79
2022/11/26 03:50:17;;;;;;;35.33;17.75;;;8.00;99.90;;;8.08;100.00;101856.59;4933517;29;20205;-81
2022/11/26 03:52:47;;;;;;;38.05;19.10;;;8.00;99.90;;;7.90;100.00;101850.41;4930006;29;20205;-80
2022/11/26 03:55:18;;;;;;;43.83;18.98;;;7.90;99.90;;;7.97;100.00;101873.03;4933840;29;20198;-83
2022/11/26 03:57:46;;;;;;;53.97;23.00;;;;;;;8.01;100.00;101871.69;4925454;29;20193;-82
2022/11/26 04:00:16;;;;;;;47.03;18.90;;;;;;;8.00;100.00;101875.41;4924209;29;20225;-80
2022/11/26 04:02:45;;;;;;;48.78;21.10;;;;;;;7.99;100.00;101879.09;4925120;29;20185;-81
2022/11/26 04:05:14;;;;;;;36.45;18.52;;;;;;;8.02;100.00;101875.25;4939312;29;20206;-82
2022/11/26 04:07:43;;;;;;;52.25;18.83;;;;;;;8.09;100.00;101887.06;4925989;29;20235;-81
2022/11/26 04:10:12;;;;;;;44.00;22.05;;;;;;;8.11;100.00;101888.59;4925126;29;20671;-82
2022/11/26 04:12:43;;;;;;;55.97;21.85;;;;;;;8.14;100.00;101882.88;4925612;29;20213;-82
2022/11/26 04:15:12;;;;;;;57.03;19.63;;;;;;;8.18;100.00;101888.81;4920329;29;20189;-82
2022/11/26 04:17:41;;;;;;;42.47;17.42;;;;;;;8.10;100.00;101892.28;4926275;29;20551;-83
2022/11/26 04:20:11;;;;;;;51.33;20.55;;;;;;;8.14;100.00;101893.66;4924533;29;20209;-82
2022/11/26 04:22:40;;;;;;;71.63;25.60;;;;;;;8.10;100.00;101903.09;4925800;29;20185;-82
2022/11/26 04:25:09;;;;;;;45.03;21.73;;;;;;;8.03;100.00;101907.44;4925373;29;20205;-83
2022/11/26 04:27:38;;;;;;;42.75;20.90;;;;;;;8.13;100.00;101901.94;4926640;29;20445;-80
2022/11/26 04:30:10;;;;;;;40.05;21.27;;;;;;;8.14;100.00;101909.84;4926946;29;20559;-80
2022/11/26 04:32:39;;;;;;;56.85;19.48;;;;;;;8.04;100.00;101914.50;4920074;29;20707;-80
2022/11/26 04:35:09;;;;;;;46.13;20.88;;;;;;;8.06;100.00;101912.50;4920563;29;20684;-81
2022/11/26 04:37:38;;;;;;;60.00;24.13;;;;;;;8.02;100.00;101912.97;4927078;29;20198;-81
2022/11/26 04:40:08;;;;;;;62.22;19.60;;;;;;;8.05;100.00;101916.19;4924209;29;20209;-82
2022/11/26 04:42:37;;;;;;;41.78;18.35;;;;;;;8.11;100.00;101918.25;4925657;29;20205;-82
2022/11/26 04:45:09;;;;;;;43.85;20.27;;;;;;;8.10;100.00;101929.19;4929532;29;20569;-80
2022/11/26 04:47:38;;;;;;;49.25;19.75;;;;;;;8.05;100.00;101926.13;4930212;29;20177;-81
2022/11/26 04:50:11;;;;;;;52.85;19.60;;;;;;;8.04;100.00;101924.44;4916557;29;20216;-84
2022/11/26 04:52:41;;;;;;;55.47;22.33;;;;;;;8.00;100.00;101945.47;4927493;29;20700;-84
2022/11/26 04:55:10;;;;;;;38.80;19.75;;;;;;;8.04;100.00;101936.06;4925206;29;20270;-81
2022/11/26 04:57:39;;;;;;;39.20;18.88;;;;;;;8.13;100.00;101940.50;4926115;29;20261;-81
2022/11/26 05:00:11;;;;;;;44.55;19.88;;;;;;;8.13;100.00;101948.56;4924952;29;20218;-82
2022/11/26 05:02:40;;;;;;;56.15;19.27;;;;;;;8.15;100.00;101954.66;4924881;29;20657;-83
2022/11/26 05:05:10;;;;;;;35.05;18.13;;;;;;;8.11;100.00;101961.41;4925163;29;20720;-84
2022/11/26 05:07:39;;;;;;;39.85;18.65;;;;;;;8.11;100.00;101964.09;4925234;29;20205;-83
2022/11/26 05:10:09;;;;;;;28.35;16.65;;;;;;;8.17;100.00;101963.47;4924337;29;20209;-82
2022/11/26 05:12:38;;;;;;;32.88;16.90;;;;;;;8.11;100.00;101964.09;4925511;29;20196;-82
2022/11/26 05:15:10;;;;;;;38.58;17.17;;;;;;;8.17;100.00;101968.84;4925666;29;20708;-83
2022/11/26 05:17:39;;;;;;;35.25;18.42;;;;;;;8.22;100.00;101977.31;4923580;29;20233;-81
2022/11/26 05:20:09;;;;;;;37.42;17.27;;;;;;;8.29;100.00;101970.28;4923780;29;20201;-81
2022/11/26 05:22:38;;;;;;;26.85;16.00;;;;;;;8.36;100.00;101961.53;4925646;29;20239;-83
2022/11/26 05:25:08;;;;;;;32.10;19.05;;;;;;;8.28;100.00;101970.41;4931801;29;20224;-83
2022/11/26 05:27:38;;;;;;;25.05;14.10;;;;;;;8.15;100.00;101980.78;4931912;29;20193;-83
2022/11/26 05:30:08;;;;;;;29.10;16.38;;;;;;;8.08;100.00;101986.00;4930170;29;20248;-82
2022/11/26 05:32:39;;;;;;;24.98;14.32;;;;;;;8.17;100.00;101998.50;4925879;29;20256;-82
2022/11/26 05:35:08;;;;;;;44.22;18.27;;;;;;;8.16;100.00;101999.50;4924788;29;20213;-81
2022/11/26 05:37:37;;;;;;;32.85;17.00;;;;;;;8.16;100.00;101999.50;4924381;29;20548;-83
2022/11/26 05:40:08;;;;;;;29.08;14.93;;;;;;;8.15;100.00;102008.59;4925141;29;20662;-81
2022/11/26 05:42:37;;;;;;;32.50;16.33;;;;;;;8.13;100.00;102010.59;4924941;29;20213;-83
2022/11/26 05:45:07;;;;;;;38.05;15.07;;;;;;;8.14;100.00;102012.28;4928380;29;20197;-82
2022/11/26 05:47:38;;;;;;;43.38;16.92;;;;;;;8.06;100.00;102004.16;4925458;29;20285;-83
2022/11/26 05:50:09;;;;;;;27.75;14.15;;;;;;;7.97;100.00;102010.50;4935115;29;20173;-78
2022/11/26 05:52:39;;;;;;;28.10;14.82;;;;;;;7.95;100.00;102015.19;4936695;29;20189;-80
2022/11/26 05:55:09;;;;;;;32.15;16.00;;;;;;;7.93;100.00;102019.06;4933608;29;20210;-82
2022/11/26 05:57:38;;;;;;;25.55;16.17;;;;;;;7.88;100.00;102014.16;4927720;29;20197;-84
2022/11/26 06:00:09;;;;;;;27.52;14.65;;;;;;;7.93;100.00;102019.91;4945093;29;20230;-84
2022/11/26 06:02:43;;;;;;;21.88;11.30;;;;;;;8.00;100.00;102020.97;4931119;29;20197;-83
2022/11/26 06:05:13;;;;;;;24.30;13.57;;;;;;;7.97;100.00;102020.44;4930886;29;20206;-81
2022/11/26 06:07:42;;;;;;;27.25;13.90;;;;;;;8.05;100.00;102033.97;4930975;29;20194;-80
2022/11/26 06:10:14;;;;;;;32.35;14.27;;;;;;;8.04;100.00;102030.41;4937847;29;20177;-78
2022/11/26 06:12:43;;;;;;;28.63;13.02;;;;;;;8.00;100.00;102038.97;4941951;29;20202;-80
2022/11/26 06:15:12;;;;;;;27.67;12.80;;;;;;;8.07;100.00;102049.00;4947973;28;20214;-78
2022/11/26 06:17:42;;;;;;;20.25;11.40;;;;;;;8.04;100.00;102043.91;4923412;29;20182;-78
2022/11/26 06:20:12;;;;;;;24.90;13.73;;;;;;;8.09;100.00;102046.97;4930061;29;20194;-83
2022/11/26 06:22:43;;;;;;;27.80;13.48;;;;;;;8.08;100.00;102050.69;4928766;29;20232;-82
2022/11/26 06:25:13;;;;;;;31.17;14.35;;;;;;;8.05;100.00;102064.47;4931989;29;20204;-78
2022/11/26 06:27:43;;;;;;;19.92;13.27;;;;;;;7.98;100.00;102060.72;4930076;29;20230;-82
2022/11/26 06:30:13;;;;;;;22.23;12.05;;;;;;;8.01;100.00;102076.56;4929957;29;20261;-79
2022/11/26 06:32:44;;;;;;;25.05;13.60;;;;;;;8.06;100.00;102074.25;4931535;29;20189;-81
2022/11/26 06:35:13;;;;;;;25.08;12.82;;;;;;;8.05;100.00;102077.09;4938718;29;20198;-80
2022/11/26 06:37:42;;;;;;;35.03;14.32;;;;;;;8.00;100.00;102079.41;4939599;29;20193;-78
2022/11/26 06:40:17;;;;;;;28.35;12.05;;;;;;;8.01;100.00;102081.97;4939966;29;20217;-81
2022/11/26 06:42:49;;;;;;;37.22;10.95;;;;;;;8.06;100.00;102082.34;4933629;29;20204;-83
2022/11/26 06:45:19;;;;;;;27.02;12.05;;;;;;;8.09;100.00;102090.09;4928673;29;20280;-82
2022/11/26 06:47:51;;;;;;;34.58;14.32;;;;;;;8.01;100.00;102089.22;4929415;29;20224;-82
2022/11/26 06:50:23;;;;;;;28.30;11.85;;;;;;;8.19;100.00;102092.72;4927644;29;20237;-81
2022/11/26 06:52:52;;;;;;;24.13;11.15;;;;;;;8.21;100.00;102098.81;4930004;29;20197;-83
2022/11/26 06:55:22;;;;;;;22.80;12.45;;;;;;;8.16;100.00;102101.97;4928081;29;20220;-82
2022/11/26 06:57:51;;;;;;;23.15;11.35;;;;;;;8.09;100.00;102108.97;4928755;29;20200;-81
2022/11/26 07:00:21;;;;;;;24.00;11.88;;;;;;;8.11;100.00;102119.63;4926969;29;20258;-79
2022/11/26 07:02:51;;;;;;;28.70;13.63;;;;;;;8.15;100.00;102121.84;4925166;29;20182;-80
2022/11/26 07:05:20;;;;;;;33.03;11.80;;;;;;;8.14;100.00;102119.28;4941006;28;20185;-80
2022/11/26 07:07:49;;;;;;;29.05;12.20;;;;;;;8.14;100.00;102125.53;4941204;29;20180;-80
2022/11/26 07:10:19;;;;;;;18.83;10.70;;;;;;;8.07;100.00;102129.88;4940159;29;20215;-83
2022/11/26 07:12:48;;;;;;;20.85;10.40;;;;;;;8.18;100.00;102137.69;4929567;29;20289;-82
2022/11/26 07:15:17;;;;;;;32.03;11.35;;;;;;;8.23;100.00;102135.38;4927457;29;20302;-81
2022/11/26 07:17:46;;;;;;;15.55;12.30;;;;;;;8.15;100.00;102129.09;4926923;29;20277;-80
2022/11/26 07:20:17;;;;;;;19.30;12.40;;;;;;;8.14;100.00;102139.03;4928170;29;20221;-81
2022/11/26 07:22:46;;;;;;;30.17;12.98;;;;;;;8.06;100.00;102138.97;4928641;29;20221;-81
2022/11/26 07:25:17;;;;;;;24.60;10.90;;;;;;;8.05;100.00;102139.97;4927895;29;20244;-83
2022/11/26 07:27:45;;;;;;;38.90;11.52;;;;;;;8.09;100.00;102135.94;4927657;29;20201;-82
2022/11/26 07:30:15;;;;;;;21.60;11.38;;;;;;;8.03;100.00;102144.69;4927031;29;20208;-82
2022/11/26 07:32:44;;;;;;;21.27;11.85;;;;;;;8.09;100.00;102140.50;4928219;29;20193;-81
2022/11/26 07:35:18;;;;;;;23.33;10.32;;;;;;;8.18;100.00;102143.09;4929159;29;20688;-82
2022/11/26 07:37:48;;;;;;;20.00;9.93;;;;;;;8.18;100.00;102143.09;4929917;29;20238;-84
2022/11/26 07:40:17;;;;;;;27.35;11.60;;;;;;;8.14;100.00;102141.72;4931066;29;20209;-80
2022/11/26 07:42:46;;;;;;;24.13;11.20;;;;;;;8.38;100.00;102149.19;4929222;29;20768;-81
2022/11/26 07:45:25;;;;;;;18.20;9.82;;;;;;;8.45;100.00;102152.09;4927677;29;20190;-83
2022/11/26 07:47:54;;;;;;;26.75;10.88;;;;;;;8.43;100.00;102151.41;4929432;29;20245;-83
2022/11/26 07:50:24;;;;;;;42.22;12.20;;;;;;;8.52;100.00;102155.88;4927492;29;20201;-81
2022/11/26 07:52:53;;;;;;;18.05;12.43;;;;;;;8.53;100.00;102152.16;4928873;29;20193;-83
2022/11/26 07:55:22;;;;;;;25.00;10.57;;;;;;;8.53;100.00;102153.00;4928658;29;20215;-83
2022/11/26 07:57:51;;;;;;;18.55;9.68;;;;;;;8.57;100.00;102158.91;4930228;29;20257;-82
2022/11/26 08:00:21;;;;;;;14.85;9.63;;;;;;;8.68;100.00;102172.16;4930711;29;20257;-79
2022/11/26 08:02:50;;;;;;;15.68;10.00;;;;;;;8.63;100.00;102169.09;4937479;29;20198;-80
2022/11/26 08:05:19;;;;;;;18.10;10.83;;;;;;;8.71;100.00;102167.28;4953131;29;20458;-81
2022/11/26 08:07:50;;;;;;;23.13;10.13;;;;;;;8.48;100.00;102176.91;4937334;29;20414;-78
2022/11/26 08:10:19;;;;;;;18.95;12.00;;;;;;;8.68;100.00;102174.84;4935431;29;20404;-83
2022/11/26 08:12:48;;;;;;;25.77;11.15;;;;;;;8.74;100.00;102182.31;4935423;29;20255;-79
2022/11/26 08:15:18;;;;;;;24.08;10.50;;;;;;;8.53;100.00;102184.53;4935092;29;20221;-81
2022/11/26 08:17:47;;;;;;;17.93;8.30;;;;;;;8.48;100.00;102186.84;4944277;29;20200;-79
2022/11/26 08:20:16;;;;;;;23.13;10.20;;;;;;;8.54;100.00;102188.94;4939711;28;20401;-79
2022/11/26 08:22:45;;;;;;;20.20;9.35;;;;;;;8.54;100.00;102192.47;4940469;28;20178;-77
2022/11/26 08:25:15;;;;;;;19.27;10.70;;;;;;;8.62;100.00;102199.78;4940197;28;20291;-78
2022/11/26 08:27:53;;;;;;;19.50;9.33;;;;;;;8.68;100.00;102193.75;4940518;28;20437;-77
2022/11/26 08:30:23;;;;;;;24.57;12.37;;;;;;;8.66;100.00;102196.63;4895749;29;20490;-75
2022/11/26 08:32:54;;;;;;;22.10;13.30;;;;;;;8.91;100.00;102203.00;4882961;29;20517;-77
2022/11/26 08:35:26;;;;;;;19.70;11.17;;;;;;;8.79;100.00;102206.16;4883204;29;20830;-76
2022/11/26 08:38:16;;;;;;;17.80;12.13;;;;;;;8.80;100.00;102203.28;4882054;29;20449;-76
2022/11/26 08:40:47;;;;;;;23.98;11.45;;;;;;;8.88;100.00;102211.44;4880412;29;20406;-76
2022/11/26 08:43:16;;;;;;;19.10;10.80;;;;;;;8.88;100.00;102216.84;4953860;23;20574;-78
2022/11/26 08:45:53;;;;;;;15.30;8.98;;;;;;;8.63;100.00;102206.88;4926630;29;20436;-79
2022/11/26 08:48:23;;;;;;;23.13;9.35;;;;;;;8.69;100.00;102217.88;4927265;29;20228;-79
2022/11/26 08:50:59;;;;;;;26.63;8.70;;;;;;;8.81;100.00;102218.47;4926884;29;20189;-82
2022/11/26 08:53:29;;;;;;;15.37;9.83;;;;;;;8.77;100.00;102219.78;4926078;29;20422;-81
2022/11/26 08:56:02;;;;;;;24.23;9.90;;;;;;;8.83;100.00;102229.09;4925654;29;20564;-80
2022/11/26 08:58:34;;;;;;;17.33;8.43;;;;;;;8.73;100.00;102234.59;4928027;29;20460;-79
2022/11/26 09:01:09;;;;;;;17.60;9.90;;;;;;;8.84;100.00;102239.75;4927301;29;20308;-80
2022/11/26 09:03:38;;;;;;;24.55;8.57;;;;;;;8.86;100.00;102240.44;4928228;29;20429;-80
2022/11/26 09:06:09;;;;;;;17.80;7.57;;;;;;;8.85;100.00;102249.56;4928214;29;20189;-80
2022/11/26 09:09:11;;;;;;;16.70;8.07;;;;;;;8.66;100.00;102255.16;4926339;29;20240;-80
2022/11/26 09:11:37;;;;;;;25.92;8.85;;;;;;;8.58;100.00;102257.75;4908596;29;20748;-79
2022/11/26 09:14:06;;;;;;;12.90;7.07;;;;;;;8.62;100.00;102253.75;4913002;29;20225;-79
2022/11/26 09:16:36;;;;;;;15.40;9.43;;;;;;;8.69;100.00;102260.22;4929886;29;20516;-79
2022/11/26 09:19:07;;;;;;;16.27;8.65;;;;;;;8.59;100.00;102256.75;4927783;29;20472;-81
2022/11/26 09:21:36;;;;;;;23.50;9.38;;;;;;;8.70;100.00;102261.94;4928667;29;20182;-79
2022/11/26 09:24:06;;;;;;;14.48;7.38;;;;;;;8.89;100.00;102261.72;4920939;29;20194;-78
2022/11/26 09:26:37;;;;;;;16.63;8.10;;;;;;;8.89;100.00;102263.56;4913535;29;20189;-80
2022/11/26 09:29:06;;;;;;;21.00;7.67;;;;;;;8.81;100.00;102275.16;4931634;29;20540;-78
2022/11/26 09:31:35;;;;;;;11.63;7.37;;;;;;;8.84;100.00;102268.59;4935006;29;20479;-79
2022/11/26 09:34:23;;;;;;;17.48;7.13;;;;;;;8.81;100.00;102277.03;4932821;29;20610;-79
2022/11/26 09:36:52;;;;;;;15.83;6.60;;;;;;;8.70;100.00;102286.22;4916646;29;20205;-80
2022/11/26 09:39:21;;;;;;;13.77;6.38;;;;;;;8.85;100.00;102281.09;4925537;29;20807;-80
2022/11/26 09:41:59;;;;;;;15.97;5.87;;;;;;;8.70;100.00;102288.91;4925583;29;20189;-79
2022/11/26 09:44:40;;;;;;;17.77;7.50;;;;;;;8.65;100.00;102294.78;4924976;29;20426;-79
2022/11/26 09:47:17;;;;;;;21.03;7.20;;;;;;;8.65;100.00;102294.78;4925385;29;20458;-81
2022/11/26 09:50:07;;;;;;;21.87;7.13;;;;;;;8.75;100.00;102302.78;4926231;29;20520;-80
2022/11/26 09:52:41;;;;;;;22.40;6.07;;;;;;;8.76;100.00;102307.19;4928092;29;20404;-80
2022/11/26 09:55:17;;;;;;;12.73;6.73;;;;;;;8.56;100.00;102303.81;4931774;29;20438;-80
2022/11/26 09:57:55;;;;;;;15.77;6.63;;;;;;;8.66;100.00;102303.72;4928296;29;20728;-80
2022/11/26 10:00:33;;;;;;;35.28;8.15;;;;;;;8.84;100.00;102301.84;4926080;29;20240;-80
2022/11/26 10:03:17;;;;;;;15.90;7.00;;;;;;;8.87;100.00;102301.53;4930839;29;20234;-79
2022/11/26 10:09:33;;;;;;;27.08;8.18;;;;;;;8.83;100.00;102310.94;4924144;29;20220;-79
2022/11/26 10:12:20;;;;;;;20.83;8.07;;;;;;;8.71;100.00;102317.59;4929203;29;20229;-80
2022/11/26 10:15:17;;;;;;;16.92;7.43;;;;;;;8.64;100.00;102320.06;4936520;29;20441;-81
2022/11/26 10:17:58;;;;;;;10.80;7.63;;;;;;;8.71;100.00;102312.22;4932306;29;20205;-80
2022/11/26 10:20:52;;;;;;;15.63;6.90;;;;;;;8.76;100.00;102315.28;4925635;29;20664;-79
2022/11/26 10:23:37;;;;;;;13.40;8.13;;;;;;;8.73;100.00;102323.69;4907523;29;20433;-82
2022/11/26 10:26:27;;;;;;;11.50;5.28;;;;;;;8.44;100.00;102315.81;4923580;29;20450;-82
2022/11/26 10:29:44;;;;;;;12.43;7.18;;;;;;;8.44;100.00;102314.97;4908164;29;20300;-83
2022/11/26 10:32:27;;;;;;;15.43;7.00;;;;;;;8.61;100.00;102322.22;4909342;29;20206;-79
2022/11/26 10:35:03;;;;;;;15.85;6.43;;;;;;;8.50;100.00;102317.91;4922432;29;20228;-84
2022/11/26 10:37:37;;;;;;;13.50;5.97;;;;;;;8.54;100.00;102321.13;4937547;29;20205;-79
2022/11/26 10:40:24;;;;;;;8.05;5.43;;;;;;;8.60;100.00;102332.19;4935750;29;20216;-79
2022/11/26 10:43:03;;;;;;;21.17;5.53;;;;;;;8.48;100.00;102324.44;4935644;29;20189;-78
2022/11/26 10:45:38;;;;;;;14.70;6.13;;;;;;;8.47;100.00;102336.28;4934308;29;20181;-80
2022/11/26 10:48:23;;;;;;;17.98;6.30;;;;;;;8.55;100.00;102347.13;4931093;29;22627;-80
2022/11/26 10:51:06;;;;;;;7.77;5.00;;;;;;;8.31;100.00;102352.28;4930474;29;20234;-81
2022/11/26 10:53:50;;;;;;;9.60;4.47;;;;;;;8.36;100.00;102350.81;4926821;29;20420;-79
2022/11/26 10:56:22;;;;;;;11.98;4.50;;;;;;;8.18;100.00;102356.13;4931145;29;20447;-80
2022/11/26 10:58:54;;;;;;;17.00;5.95;;;;;;;8.31;100.00;102352.28;4932540;29;20237;-81
2022/11/26 11:01:23;;;;;;;19.52;5.60;;;;;;;8.44;100.00;102353.59;4937783;28;20182;-79
2022/11/26 11:03:58;;;;;;;10.45;4.47;;;;;;;8.47;100.00;102347.88;4941497;28;20181;-80
2022/11/26 11:06:42;;;;;;;19.30;4.80;;;;;;;8.48;100.00;102364.91;4941492;28;20485;-78
2022/11/26 11:09:26;;;;;;;18.73;6.60;;;;;;;8.52;100.00;102350.97;4941975;28;20260;-79
2022/11/26 11:12:20;;;;;;;13.45;4.90;;;;;;;8.64;100.00;102348.91;4941944;28;20157;-77
2022/11/26 11:14:51;;;;;;;11.98;4.90;;;;;;;8.62;100.00;102350.88;4942262;28;20190;-78
2022/11/26 11:17:32;;;;;;;17.80;5.90;;;;;;;8.71;100.00;102361.59;4942773;28;20264;-79
2022/11/26 11:20:24;;;;;;;10.07;5.10;;;;;;;8.66;100.00;102346.91;4941129;28;20204;-78
2022/11/26 11:23:01;;;;;;;18.70;7.20;;;;;;;8.79;100.00;102358.16;4940014;28;20420;-79